O62 weather

CLOSED Carmel Valley
California, United States

Public forecast

Using degrees Fahrenheit for public forecast. Weather courtesy of forecast.io.

METAR (pilot weather report)

Closest report is Monterey Peninsula Airport, 8.4 nm (15.5 km) NW. Retrieved 2019/09/15 08:54 UTC (16 minutes ago):

KMRY 150854Z AUTO 24006KT 5SM BR OVC002 15/13 A2993 RMK AO2 SLP147 T01500128 50005

TAF (pilot weather forecast)

Closest forecast is Monterey Peninsula Airport, 8.4 nm (15.5 km) NW. Retrieved 2019/09/15 06:42 UTC (2 hours ago):

TAF KMRY 150540Z 1506/1606 31004KT P6SM SCT008 TEMPO 1506/1508 BKN008 FM150800 22004KT P6SM OVC006 FM151200 VRB03KT 6SM BR OVC005 FM151800 29010KT P6SM FEW012 BKN200 FM160300 29008KT P6SM OVC010